PWSweather.com
Personal Weather Stations
Station Observations
KMIEASTT1
Tawas Bay, East Tawas, MI 48730

Tawas BayEast Tawas, MI 48730

Lat: 44.28, Lon: -83.48

Elevation: 600

Station Type: Davis VantagePro

http://www.tawasbayweather.com

High Low Average
Temperature 31.8°F-0.1°C 9.7°F-12.4°C 23.8°F-4.6°C
Dew Point 29.3°F-1.5°C 7.1°F-13.8°C 19.1°F-7.2°C
Winds 18.0 mph 29.0 kmh Calm Calm 5.0 mph S8.0 kmh S
Wind Gusts 22.0 mph35.4 kmh -- 9.0 mph14.5 kmh
Humidity 92% 73% 82%
Pressure 30.31 in1026.4 mb 29.60 in1002.4 mb -
Precipitation 0.00 in0.0 mm - -
Hour Temp Dew Point Humidity Winds Wind Gusts Pressure Precip Precip Rate Daily Precip Total
12:00 AM 18.5°F-7.5°C 13.4°F-10.3°C 80% Calm Calm -- 30.25 in1024.4 mb 0.00 in0.0 mm 0.00 in0.0 mm 0.00 in0.0 mm
12:15 AM 17.9°F-7.8°C 13.1°F-10.5°C 81% Calm Calm -- 30.25 in1024.4 mb 0.00 in0.0 mm 0.00 in0.0 mm 0.00 in0.0 mm
12:30 AM 17.7°F-7.9°C 13.2°F-10.4°C 82% Calm Calm -- 30.25 in1024.4 mb 0.00 in0.0 mm 0.00 in0.0 mm 0.00 in0.0 mm
12:45 AM 17.6°F-8.0°C 13.1°F-10.5°C 82% Calm Calm -- 30.25 in1024.4 mb 0.00 in0.0 mm 0.00 in0.0 mm 0.00 in0.0 mm
01:00 AM 17.5°F-8.1°C 13.5°F-10.3°C 84% Calm Calm -- 30.25 in1024.4 mb 0.00 in0.0 mm 0.00 in0.0 mm 0.00 in0.0 mm
01:15 AM 18.1°F-7.7°C 14.1°F-9.9°C 84% Calm Calm -- 30.25 in1024.4 mb 0.00 in0.0 mm 0.00 in0.0 mm 0.00 in0.0 mm
01:30 AM 17.8°F-7.9°C 13.3°F-10.4°C 82% Calm Calm -- 30.25 in1024.4 mb 0.00 in0.0 mm 0.00 in0.0 mm 0.00 in0.0 mm
01:45 AM 15.8°F-9.0°C 11.6°F-11.3°C 83% Calm Calm -- 30.25 in1024.4 mb 0.00 in0.0 mm 0.00 in0.0 mm 0.00 in0.0 mm
02:00 AM 15.2°F-9.3°C 11.5°F-11.4°C 85% Calm Calm -- 30.26 in1024.7 mb 0.00 in0.0 mm 0.00 in0.0 mm 0.00 in0.0 mm
02:15 AM 14.6°F-9.7°C 11.2°F-11.6°C 86% Calm Calm -- 30.26 in1024.7 mb 0.00 in0.0 mm 0.00 in0.0 mm 0.00 in0.0 mm
02:30 AM 13.7°F-10.2°C 10.3°F-12.1°C 86% Calm Calm -- 30.26 in1024.7 mb 0.00 in0.0 mm 0.00 in0.0 mm 0.00 in0.0 mm
02:45 AM 13.6°F-10.2°C 10.2°F-12.1°C 86% Calm Calm -- 30.26 in1024.7 mb 0.00 in0.0 mm 0.00 in0.0 mm 0.00 in0.0 mm
03:00 AM 14.1°F-9.9°C 10.7°F-11.8°C 86% Calm Calm -- 30.27 in1025.1 mb 0.00 in0.0 mm 0.00 in0.0 mm 0.00 in0.0 mm
03:15 AM 12.9°F-10.6°C 9.3°F-12.6°C 85% Calm Calm -- 30.27 in1025.1 mb 0.00 in0.0 mm 0.00 in0.0 mm 0.00 in0.0 mm
03:30 AM 13.3°F-10.4°C 9.9°F-12.3°C 86% Calm Calm -- 30.27 in1025.1 mb 0.00 in0.0 mm 0.00 in0.0 mm 0.00 in0.0 mm
03:45 AM 12.2°F-11.0°C 8.6°F-13.0°C 85% Calm Calm -- 30.27 in1025.1 mb 0.00 in0.0 mm 0.00 in0.0 mm 0.00 in0.0 mm
04:00 AM 12.4°F-10.9°C 9.3°F-12.6°C 87% Calm Calm -- 30.27 in1025.1 mb 0.00 in0.0 mm 0.00 in0.0 mm 0.00 in0.0 mm
04:15 AM 12.3°F-10.9°C 9.2°F-12.7°C 87% Calm Calm -- 30.27 in1025.1 mb 0.00 in0.0 mm 0.00 in0.0 mm 0.00 in0.0 mm
04:30 AM 11.4°F-11.4°C 8.5°F-13.1°C 88% 1.0 mph N1.6 kmh N 3.0 mph4.8 kmh 30.27 in1025.1 mb 0.00 in0.0 mm 0.00 in0.0 mm 0.00 in0.0 mm
04:45 AM 10.9°F-11.7°C 8.3°F-13.2°C 89% Calm Calm -- 30.27 in1025.1 mb 0.00 in0.0 mm 0.00 in0.0 mm 0.00 in0.0 mm
05:00 AM 10.5°F-11.9°C 7.9°F-13.4°C 89% Calm Calm -- 30.27 in1025.1 mb 0.00 in0.0 mm 0.00 in0.0 mm 0.00 in0.0 mm
05:15 AM 10.3°F-12.1°C 7.7°F-13.5°C 89% Calm Calm -- 30.27 in1025.1 mb 0.00 in0.0 mm 0.00 in0.0 mm 0.00 in0.0 mm
05:30 AM 10.1°F-12.2°C 7.5°F-13.6°C 89% Calm Calm -- 30.28 in1025.4 mb 0.00 in0.0 mm 0.00 in0.0 mm 0.00 in0.0 mm
05:45 AM 10.0°F-12.2°C 7.4°F-13.7°C 89% Calm Calm -- 30.27 in1025.1 mb 0.00 in0.0 mm 0.00 in0.0 mm 0.00 in0.0 mm
06:00 AM 9.8°F-12.3°C 7.2°F-13.8°C 89% Calm Calm -- 30.28 in1025.4 mb 0.00 in0.0 mm 0.00 in0.0 mm 0.00 in0.0 mm
06:17 AM 10.0°F-12.2°C 7.7°F-13.5°C 90% Calm Calm -- 30.30 in1026.1 mb 0.00 in0.0 mm 0.00 in0.0 mm 0.00 in0.0 mm
06:30 AM 10.2°F-12.1°C 7.6°F-13.6°C 89% Calm Calm -- 30.30 in1026.1 mb 0.00 in0.0 mm 0.00 in0.0 mm 0.00 in0.0 mm
06:45 AM 10.2°F-12.1°C 7.6°F-13.6°C 89% Calm Calm -- 30.31 in1026.4 mb 0.00 in0.0 mm 0.00 in0.0 mm 0.00 in0.0 mm
07:00 AM 10.1°F-12.2°C 7.5°F-13.6°C 89% Calm Calm -- 30.31 in1026.4 mb 0.00 in0.0 mm 0.00 in0.0 mm 0.00 in0.0 mm
07:15 AM 10.1°F-12.2°C 7.5°F-13.6°C 89% Calm Calm -- 30.29 in1025.7 mb 0.00 in0.0 mm 0.00 in0.0 mm 0.00 in0.0 mm
07:30 AM 10.0°F-12.2°C 7.4°F-13.7°C 89% Calm Calm 1.0 mph1.6 kmh 30.27 in1025.1 mb 0.00 in0.0 mm 0.00 in0.0 mm 0.00 in0.0 mm
07:45 AM 9.7°F-12.4°C 7.1°F-13.8°C 89% Calm Calm -- 30.26 in1024.7 mb 0.00 in0.0 mm 0.00 in0.0 mm 0.00 in0.0 mm
08:00 AM 9.7°F-12.4°C 7.4°F-13.7°C 90% Calm Calm -- 30.27 in1025.1 mb 0.00 in0.0 mm 0.00 in0.0 mm 0.00 in0.0 mm
08:15 AM 10.1°F-12.2°C 7.8°F-13.4°C 90% Calm Calm -- 30.27 in1025.1 mb 0.00 in0.0 mm 0.00 in0.0 mm 0.00 in0.0 mm
08:30 AM 11.1°F-11.6°C 8.8°F-12.9°C 90% Calm Calm -- 30.27 in1025.1 mb 0.00 in0.0 mm 0.00 in0.0 mm 0.00 in0.0 mm
08:45 AM 12.4°F-10.9°C 10.0°F-12.2°C 90% Calm Calm -- 30.28 in1025.4 mb 0.00 in0.0 mm 0.00 in0.0 mm 0.00 in0.0 mm
09:00 AM 14.5°F-9.7°C 12.1°F-11.1°C 90% Calm Calm -- 30.28 in1025.4 mb 0.00 in0.0 mm 0.00 in0.0 mm 0.00 in0.0 mm
09:15 AM 17.0°F-8.3°C 14.6°F-9.7°C 90% 1.0 mph N1.6 kmh N 1.0 mph1.6 kmh 30.28 in1025.4 mb 0.00 in0.0 mm 0.00 in0.0 mm 0.00 in0.0 mm
09:30 AM 19.5°F-6.9°C 16.5°F-8.6°C 88% Calm Calm 1.0 mph1.6 kmh 30.27 in1025.1 mb 0.00 in0.0 mm 0.00 in0.0 mm 0.00 in0.0 mm
09:45 AM 23.0°F-5.0°C 20.3°F-6.5°C 89% Calm Calm -- 30.27 in1025.1 mb 0.00 in0.0 mm 0.00 in0.0 mm 0.00 in0.0 mm
10:00 AM 28.1°F-2.2°C 24.5°F-4.2°C 86% Calm Calm -- 30.27 in1025.1 mb 0.00 in0.0 mm 0.00 in0.0 mm 0.00 in0.0 mm
10:15 AM 28.3°F-2.1°C 23.2°F-4.9°C 81% 2.0 mph E3.2 kmh E 5.0 mph8.0 kmh 30.27 in1025.1 mb 0.00 in0.0 mm 0.00 in0.0 mm 0.00 in0.0 mm
10:30 AM 26.8°F-2.9°C 22.9°F-5.1°C 85% 3.0 mph E4.8 kmh E 3.0 mph4.8 kmh 30.27 in1025.1 mb 0.00 in0.0 mm 0.00 in0.0 mm 0.00 in0.0 mm
10:45 AM 27.5°F-2.5°C 23.3°F-4.8°C 84% 2.0 mph E3.2 kmh E 6.0 mph9.7 kmh 30.27 in1025.1 mb 0.00 in0.0 mm 0.00 in0.0 mm 0.00 in0.0 mm
11:00 AM 27.5°F-2.5°C 23.6°F-4.7°C 85% 6.0 mph E9.7 kmh E 8.0 mph12.9 kmh 30.26 in1024.7 mb 0.00 in0.0 mm 0.00 in0.0 mm 0.00 in0.0 mm
11:15 AM 28.0°F-2.2°C 24.1°F-4.4°C 85% 9.0 mph E14.5 kmh E 11.0 mph17.7 kmh 30.27 in1025.1 mb 0.00 in0.0 mm 0.00 in0.0 mm 0.00 in0.0 mm
11:30 AM 28.8°F-1.8°C 24.3°F-4.3°C 83% 10.0 mph E16.1 kmh E 14.0 mph22.5 kmh 30.25 in1024.4 mb 0.00 in0.0 mm 0.00 in0.0 mm 0.00 in0.0 mm
11:45 AM 29.1°F-1.6°C 24.3°F-4.3°C 82% 10.0 mph E16.1 kmh E 11.0 mph17.7 kmh 30.26 in1024.7 mb 0.00 in0.0 mm 0.00 in0.0 mm 0.00 in0.0 mm
12:00 PM 29.7°F-1.3°C 23.4°F-4.8°C 77% 11.0 mph ESE17.7 kmh ESE 13.0 mph20.9 kmh 30.26 in1024.7 mb 0.00 in0.0 mm 0.00 in0.0 mm 0.00 in0.0 mm
12:15 PM 29.9°F-1.2°C 25.1°F-3.8°C 82% 10.0 mph ESE16.1 kmh ESE 11.0 mph17.7 kmh 30.28 in1025.4 mb 0.00 in0.0 mm 0.00 in0.0 mm 0.00 in0.0 mm
12:30 PM 30.2°F-1.0°C 25.7°F-3.5°C 83% 9.0 mph ESE14.5 kmh ESE 11.0 mph17.7 kmh 30.28 in1025.4 mb 0.00 in0.0 mm 0.00 in0.0 mm 0.00 in0.0 mm
12:45 PM 30.3°F-0.9°C 25.8°F-3.4°C 83% 10.0 mph E16.1 kmh E 11.0 mph17.7 kmh 30.27 in1025.1 mb 0.00 in0.0 mm 0.00 in0.0 mm 0.00 in0.0 mm
01:00 PM 30.1°F-1.1°C 25.6°F-3.6°C 83% 11.0 mph E17.7 kmh E 16.0 mph25.7 kmh 30.25 in1024.4 mb 0.00 in0.0 mm 0.00 in0.0 mm 0.00 in0.0 mm
01:15 PM 30.3°F-0.9°C 24.6°F-4.1°C 79% 13.0 mph E20.9 kmh E 18.0 mph29.0 kmh 30.23 in1023.7 mb 0.00 in0.0 mm 0.00 in0.0 mm 0.00 in0.0 mm
01:30 PM 30.2°F-1.0°C 23.9°F-4.5°C 77% 12.0 mph ESE19.3 kmh ESE 18.0 mph29.0 kmh 30.23 in1023.7 mb 0.00 in0.0 mm 0.00 in0.0 mm 0.00 in0.0 mm
01:45 PM 30.8°F-0.7°C 24.1°F-4.4°C 76% 11.0 mph E17.7 kmh E 20.0 mph32.2 kmh 30.21 in1023.0 mb 0.00 in0.0 mm 0.00 in0.0 mm 0.00 in0.0 mm
02:00 PM 30.8°F-0.7°C 24.8°F-4.0°C 78% 17.0 mph E27.4 kmh E 19.0 mph30.6 kmh 30.21 in1023.0 mb 0.00 in0.0 mm 0.00 in0.0 mm 0.00 in0.0 mm
02:15 PM 30.7°F-0.7°C 24.0°F-4.4°C 76% 15.0 mph ESE24.1 kmh ESE 19.0 mph30.6 kmh 30.23 in1023.7 mb 0.00 in0.0 mm 0.00 in0.0 mm 0.00 in0.0 mm
02:30 PM 30.5°F-0.8°C 23.5°F-4.7°C 75% 14.0 mph E22.5 kmh E 17.0 mph27.4 kmh 30.21 in1023.0 mb 0.00 in0.0 mm 0.00 in0.0 mm 0.00 in0.0 mm
02:45 PM 30.4°F-0.9°C 24.1°F-4.4°C 77% 11.0 mph E17.7 kmh E 16.0 mph25.7 kmh 30.21 in1023.0 mb 0.00 in0.0 mm 0.00 in0.0 mm 0.00 in0.0 mm
03:00 PM 30.5°F-0.8°C 25.1°F-3.8°C 80% 11.0 mph E17.7 kmh E 15.0 mph24.1 kmh 30.20 in1022.7 mb 0.00 in0.0 mm 0.00 in0.0 mm 0.00 in0.0 mm
03:15 PM 30.5°F-0.8°C 24.5°F-4.2°C 78% 13.0 mph E20.9 kmh E 18.0 mph29.0 kmh 30.18 in1022.0 mb 0.00 in0.0 mm 0.00 in0.0 mm 0.00 in0.0 mm
03:30 PM 30.4°F-0.9°C 23.8°F-4.6°C 76% 16.0 mph E25.7 kmh E 18.0 mph29.0 kmh 30.17 in1021.7 mb 0.00 in0.0 mm 0.00 in0.0 mm 0.00 in0.0 mm
03:45 PM 30.6°F-0.8°C 24.6°F-4.1°C 78% 13.0 mph E20.9 kmh E 18.0 mph29.0 kmh 30.16 in1021.3 mb 0.00 in0.0 mm 0.00 in0.0 mm 0.00 in0.0 mm
04:00 PM 29.9°F-1.2°C 22.6°F-5.2°C 74% 18.0 mph E29.0 kmh E 20.0 mph32.2 kmh 30.15 in1021.0 mb 0.00 in0.0 mm 0.00 in0.0 mm 0.00 in0.0 mm
04:15 PM 30.5°F-0.8°C 23.5°F-4.7°C 75% 13.0 mph ENE20.9 kmh ENE 19.0 mph30.6 kmh 30.13 in1020.3 mb 0.00 in0.0 mm 0.00 in0.0 mm 0.00 in0.0 mm
04:30 PM 30.3°F-0.9°C 23.0°F-5.0°C 74% 11.0 mph E17.7 kmh E 22.0 mph35.4 kmh 30.11 in1019.6 mb 0.00 in0.0 mm 0.00 in0.0 mm 0.00 in0.0 mm
04:45 PM 30.2°F-1.0°C 23.2°F-4.9°C 75% 11.0 mph E17.7 kmh E 16.0 mph25.7 kmh 30.10 in1019.3 mb 0.00 in0.0 mm 0.00 in0.0 mm 0.00 in0.0 mm
05:00 PM 29.8°F-1.2°C 23.2°F-4.9°C 76% 8.0 mph SE12.9 kmh SE 19.0 mph30.6 kmh 30.10 in1019.3 mb 0.00 in0.0 mm 0.00 in0.0 mm 0.00 in0.0 mm
05:15 PM 30.0°F-1.1°C 23.7°F-4.6°C 77% 10.0 mph E16.1 kmh E 20.0 mph32.2 kmh 30.08 in1018.6 mb 0.00 in0.0 mm 0.00 in0.0 mm 0.00 in0.0 mm
05:30 PM 30.3°F-0.9°C 23.7°F-4.6°C 76% 15.0 mph E24.1 kmh E 16.0 mph25.7 kmh 30.07 in1018.3 mb 0.00 in0.0 mm 0.00 in0.0 mm 0.00 in0.0 mm
05:45 PM 30.5°F-0.8°C 24.5°F-4.2°C 78% 7.0 mph NE11.3 kmh NE 15.0 mph24.1 kmh 30.04 in1017.3 mb 0.00 in0.0 mm 0.00 in0.0 mm 0.00 in0.0 mm
06:00 PM 30.5°F-0.8°C 24.5°F-4.2°C 78% 1.0 mph E1.6 kmh E 14.0 mph22.5 kmh 30.02 in1016.6 mb 0.00 in0.0 mm 0.00 in0.0 mm 0.00 in0.0 mm
06:15 PM 30.4°F-0.9°C 24.4°F-4.2°C 78% 5.0 mph ENE8.0 kmh ENE 21.0 mph33.8 kmh 30.00 in1015.9 mb 0.00 in0.0 mm 0.00 in0.0 mm 0.00 in0.0 mm
06:30 PM 30.4°F-0.9°C 24.4°F-4.2°C 78% 10.0 mph SE16.1 kmh SE 18.0 mph29.0 kmh 29.99 in1015.6 mb 0.00 in0.0 mm 0.00 in0.0 mm 0.00 in0.0 mm
06:45 PM 30.5°F-0.8°C 24.2°F-4.3°C 77% 14.0 mph E22.5 kmh E 18.0 mph29.0 kmh 29.99 in1015.6 mb 0.00 in0.0 mm 0.00 in0.0 mm 0.00 in0.0 mm
07:00 PM 30.7°F-0.7°C 24.4°F-4.2°C 77% 5.0 mph NE8.0 kmh NE 18.0 mph29.0 kmh 29.98 in1015.2 mb 0.00 in0.0 mm 0.00 in0.0 mm 0.00 in0.0 mm
07:15 PM 31.0°F-0.6°C 24.3°F-4.3°C 76% 2.0 mph NE3.2 kmh NE 13.0 mph20.9 kmh 29.97 in1014.9 mb 0.00 in0.0 mm 0.00 in0.0 mm 0.00 in0.0 mm
07:30 PM 31.2°F-0.4°C 24.5°F-4.2°C 76% 9.0 mph NE14.5 kmh NE 13.0 mph20.9 kmh 29.97 in1014.9 mb 0.00 in0.0 mm 0.00 in0.0 mm 0.00 in0.0 mm
07:45 PM 31.5°F-0.3°C 24.8°F-4.0°C 76% 8.0 mph E12.9 kmh E 14.0 mph22.5 kmh 29.95 in1014.2 mb 0.00 in0.0 mm 0.00 in0.0 mm 0.00 in0.0 mm
08:00 PM 31.6°F-0.2°C 24.6°F-4.1°C 75% 7.0 mph E11.3 kmh E 16.0 mph25.7 kmh 29.94 in1013.9 mb 0.00 in0.0 mm 0.00 in0.0 mm 0.00 in0.0 mm
08:15 PM 31.7°F-0.2°C 24.7°F-4.1°C 75% 5.0 mph NE8.0 kmh NE 13.0 mph20.9 kmh 29.92 in1013.2 mb 0.00 in0.0 mm 0.00 in0.0 mm 0.00 in0.0 mm
08:30 PM 31.7°F-0.2°C 24.7°F-4.1°C 75% 5.0 mph NE8.0 kmh NE 14.0 mph22.5 kmh 29.92 in1013.2 mb 0.00 in0.0 mm 0.00 in0.0 mm 0.00 in0.0 mm
08:45 PM 31.8°F-0.1°C 24.5°F-4.2°C 74% 5.0 mph E8.0 kmh E 13.0 mph20.9 kmh 29.90 in1012.5 mb 0.00 in0.0 mm 0.00 in0.0 mm 0.00 in0.0 mm
09:00 PM 31.8°F-0.1°C 24.5°F-4.2°C 74% 2.0 mph E3.2 kmh E 16.0 mph25.7 kmh 29.89 in1012.2 mb 0.00 in0.0 mm 0.00 in0.0 mm 0.00 in0.0 mm
09:15 PM 31.8°F-0.1°C 24.5°F-4.2°C 74% 10.0 mph NE16.1 kmh NE 13.0 mph20.9 kmh 29.88 in1011.9 mb 0.00 in0.0 mm 0.00 in0.0 mm 0.00 in0.0 mm
09:30 PM 31.7°F-0.2°C 24.4°F-4.2°C 74% 5.0 mph E8.0 kmh E 17.0 mph27.4 kmh 29.87 in1011.5 mb 0.00 in0.0 mm 0.00 in0.0 mm 0.00 in0.0 mm
09:45 PM 31.6°F-0.2°C 24.0°F-4.4°C 73% 5.0 mph NE8.0 kmh NE 15.0 mph24.1 kmh 29.84 in1010.5 mb 0.00 in0.0 mm 0.00 in0.0 mm 0.00 in0.0 mm
10:00 PM 31.5°F-0.3°C 23.9°F-4.5°C 73% 9.0 mph ESE14.5 kmh ESE 16.0 mph25.7 kmh 29.82 in1009.8 mb 0.00 in0.0 mm 0.00 in0.0 mm 0.00 in0.0 mm
10:15 PM 31.3°F-0.4°C 24.0°F-4.4°C 74% 1.0 mph NE1.6 kmh NE 16.0 mph25.7 kmh 29.81 in1009.5 mb 0.00 in0.0 mm 0.00 in0.0 mm 0.00 in0.0 mm
10:30 PM 31.1°F-0.5°C 24.4°F-4.2°C 76% 15.0 mph E24.1 kmh E 15.0 mph24.1 kmh 29.78 in1008.5 mb 0.00 in0.0 mm 0.00 in0.0 mm 0.00 in0.0 mm
10:45 PM 30.7°F-0.7°C 25.3°F-3.7°C 80% 9.0 mph ESE14.5 kmh ESE 21.0 mph33.8 kmh 29.75 in1007.5 mb 0.00 in0.0 mm 0.00 in0.0 mm 0.00 in0.0 mm
11:00 PM 30.4°F-0.9°C 25.3°F-3.7°C 81% 11.0 mph NNE17.7 kmh NNE 18.0 mph29.0 kmh 29.73 in1006.8 mb 0.00 in0.0 mm 0.00 in0.0 mm 0.00 in0.0 mm
11:15 PM 30.4°F-0.9°C 25.6°F-3.6°C 82% 3.0 mph ENE4.8 kmh ENE 18.0 mph29.0 kmh 29.70 in1005.8 mb 0.00 in0.0 mm 0.00 in0.0 mm 0.00 in0.0 mm
11:30 PM 30.4°F-0.9°C 26.7°F-2.9°C 86% 2.0 mph E3.2 kmh E 14.0 mph22.5 kmh 29.68 in1005.1 mb 0.02 in0.5 mm 0.08 in2.0 mm 0.02 in0.5 mm
11:45 PM 30.6°F-0.8°C 27.8°F-2.3°C 89% 12.0 mph NE19.3 kmh NE 19.0 mph30.6 kmh 29.67 in1004.7 mb 0.06 in1.5 mm 0.16 in4.1 mm 0.06 in1.5 mm